sensor_id;sensor_type;location;lat;lon;timestamp;pressure;altitude;pressure_sealevel;temperature;humidity
25156;BME280;21913;52.456;13.634;2023-03-01T00:03:07;101708.22;;;11.45;56.28
25156;BME280;21913;52.456;13.634;2023-03-01T00:08:09;101696.94;;;11.43;56.21
25156;BME280;21913;52.456;13.634;2023-03-01T00:13:10;101701.25;;;11.43;56.20
25156;BME280;21913;52.456;13.634;2023-03-01T00:18:12;101702.97;;;11.42;56.25
25156;BME280;21913;52.456;13.634;2023-03-01T00:23:13;101701.19;;;11.41;56.16
25156;BME280;21913;52.456;13.634;2023-03-01T00:28:15;101707.28;;;11.42;56.16
25156;BME280;21913;52.456;13.634;2023-03-01T00:33:17;101703.75;;;11.40;56.38
25156;BME280;21913;52.456;13.634;2023-03-01T00:38:19;101702.06;;;11.40;56.28
25156;BME280;21913;52.456;13.634;2023-03-01T00:43:21;101701.16;;;11.38;56.41
25156;BME280;21913;52.456;13.634;2023-03-01T00:48:23;101688.16;;;11.37;56.40
25156;BME280;21913;52.456;13.634;2023-03-01T00:53:24;101684.66;;;11.36;56.44
25156;BME280;21913;52.456;13.634;2023-03-01T00:58:26;101683.78;;;11.36;56.35
25156;BME280;21913;52.456;13.634;2023-03-01T01:03:28;101685.50;;;11.35;56.49
25156;BME280;21913;52.456;13.634;2023-03-01T01:08:29;101681.19;;;11.34;56.43
25156;BME280;21913;52.456;13.634;2023-03-01T01:13:31;101686.38;;;11.34;56.31
25156;BME280;21913;52.456;13.634;2023-03-01T01:18:32;101693.25;;;11.32;56.48
25156;BME280;21913;52.456;13.634;2023-03-01T01:23:34;101674.22;;;11.31;56.45
25156;BME280;21913;52.456;13.634;2023-03-01T01:28:36;101675.09;;;11.32;56.49
25156;BME280;21913;52.456;13.634;2023-03-01T01:33:38;101669.84;;;11.30;56.51
25156;BME280;21913;52.456;13.634;2023-03-01T01:38:40;101656.03;;;11.30;56.52
25156;BME280;21913;52.456;13.634;2023-03-01T01:43:44;101655.16;;;11.29;56.44
25156;BME280;21913;52.456;13.634;2023-03-01T01:48:52;101650.84;;;11.30;56.49
25156;BME280;21913;52.456;13.634;2023-03-01T01:53:58;101643.91;;;11.29;56.39
25156;BME280;21913;52.456;13.634;2023-03-01T01:59:01;101644.75;;;11.28;56.56
25156;BME280;21913;52.456;13.634;2023-03-01T02:04:03;101640.44;;;11.27;56.58
25156;BME280;21913;52.456;13.634;2023-03-01T02:09:08;101645.63;;;11.27;56.53
25156;BME280;21913;52.456;13.634;2023-03-01T02:14:11;101634.31;;;11.25;56.53
25156;BME280;21913;52.456;13.634;2023-03-01T02:29:51;101636.03;;;11.24;56.59
25156;BME280;21913;52.456;13.634;2023-03-01T02:34:54;101631.69;;;11.23;56.58
25156;BME280;21913;52.456;13.634;2023-03-01T02:39:59;101629.97;;;11.22;56.48
25156;BME280;21913;52.456;13.634;2023-03-01T02:45:04;101633.41;;;11.21;56.62
25156;BME280;21913;52.456;13.634;2023-03-01T02:50:24;101628.16;;;11.20;56.85
25156;BME280;21913;52.456;13.634;2023-03-01T02:55:27;101632.47;;;11.19;56.54
25156;BME280;21913;52.456;13.634;2023-03-01T03:00:37;101623.81;;;11.19;56.63
25156;BME280;21913;52.456;13.634;2023-03-01T03:05:39;101622.94;;;11.18;56.62
25156;BME280;21913;52.456;13.634;2023-03-01T03:10:42;101620.34;;;11.18;56.73
25156;BME280;21913;52.456;13.634;2023-03-01T03:15:43;101616.00;;;11.16;56.66
25156;BME280;21913;52.456;13.634;2023-03-01T03:20:45;101607.38;;;11.17;56.69
25156;BME280;21913;52.456;13.634;2023-03-01T03:25:49;101600.47;;;11.16;56.73
25156;BME280;21913;52.456;13.634;2023-03-01T03:30:51;101594.41;;;11.15;56.81
25156;BME280;21913;52.456;13.634;2023-03-01T03:35:52;101579.66;;;11.14;56.58
25156;BME280;21913;52.456;13.634;2023-03-01T03:41:01;101576.22;;;11.14;56.75
25156;BME280;21913;52.456;13.634;2023-03-01T03:46:04;101574.47;;;11.13;56.75
25156;BME280;21913;52.456;13.634;2023-03-01T03:51:06;101578.81;;;11.14;56.75
25156;BME280;21913;52.456;13.634;2023-03-01T03:56:08;101571.84;;;11.11;56.75
25156;BME280;21913;52.456;13.634;2023-03-01T04:01:10;101572.72;;;11.12;56.74
25156;BME280;21913;52.456;13.634;2023-03-01T04:06:12;101576.16;;;11.11;56.73
25156;BME280;21913;52.456;13.634;2023-03-01T04:11:13;101572.69;;;11.10;56.72
25156;BME280;21913;52.456;13.634;2023-03-01T04:16:15;101578.72;;;11.09;56.83
25156;BME280;21913;52.456;13.634;2023-03-01T04:21:17;101568.38;;;11.09;56.74
25156;BME280;21913;52.456;13.634;2023-03-01T04:26:19;101566.59;;;11.08;56.79
25156;BME280;21913;52.456;13.634;2023-03-01T04:31:21;101572.63;;;11.09;56.73
25156;BME280;21913;52.456;13.634;2023-03-01T04:36:25;101576.06;;;11.07;56.79
25156;BME280;21913;52.456;13.634;2023-03-01T04:41:27;101575.22;;;11.07;56.88
25156;BME280;21913;52.456;13.634;2023-03-01T04:46:29;101576.94;;;11.06;56.88
25156;BME280;21913;52.456;13.634;2023-03-01T04:51:31;101578.66;;;11.07;56.79
25156;BME280;21913;52.456;13.634;2023-03-01T04:56:33;101564.81;;;11.05;56.67
25156;BME280;21913;52.456;13.634;2023-03-01T05:01:34;101576.94;;;11.06;56.81
25156;BME280;21913;52.456;13.634;2023-03-01T05:06:36;101571.72;;;11.05;56.69
25156;BME280;21913;52.456;13.634;2023-03-01T05:11:38;101566.53;;;11.05;56.64
25156;BME280;21913;52.456;13.634;2023-03-01T05:16:39;101571.72;;;11.05;56.80
25156;BME280;21913;52.456;13.634;2023-03-01T05:21:42;101565.66;;;11.04;56.77
25156;BME280;21913;52.456;13.634;2023-03-01T05:26:44;101559.63;;;11.04;56.74
25156;BME280;21913;52.456;13.634;2023-03-01T05:31:45;101563.06;;;11.04;56.67
25156;BME280;21913;52.456;13.634;2023-03-01T05:36:47;101562.22;;;11.04;56.91
25156;BME280;21913;52.456;13.634;2023-03-01T05:41:53;101566.47;;;11.03;56.76
25156;BME280;21913;52.456;13.634;2023-03-01T05:46:56;101556.97;;;11.02;56.89
25156;BME280;21913;52.456;13.634;2023-03-01T05:51:58;101552.63;;;11.01;56.84
25156;BME280;21913;52.456;13.634;2023-03-01T05:57:00;101555.22;;;11.01;56.63
25156;BME280;21913;52.456;13.634;2023-03-01T06:02:01;101551.78;;;11.02;56.71
25156;BME280;21913;52.456;13.634;2023-03-01T06:07:03;101551.75;;;11.01;56.80
25156;BME280;21913;52.456;13.634;2023-03-01T06:12:05;101563.84;;;11.00;56.69
25156;BME280;21913;52.456;13.634;2023-03-01T06:17:06;101567.31;;;11.01;56.81
25156;BME280;21913;52.456;13.634;2023-03-01T06:22:08;101574.19;;;11.00;56.81
25156;BME280;21913;52.456;13.634;2023-03-01T06:27:09;101567.28;;;10.99;56.67
25156;BME280;21913;52.456;13.634;2023-03-01T06:32:11;101571.59;;;11.00;56.66
25156;BME280;21913;52.456;13.634;2023-03-01T06:37:13;101558.63;;;10.99;56.89
25156;BME280;21913;52.456;13.634;2023-03-01T06:42:14;101552.59;;;10.98;56.90
25156;BME280;21913;52.456;13.634;2023-03-01T06:47:18;101551.75;;;10.99;56.78
25156;BME280;21913;52.456;13.634;2023-03-01T06:52:20;101560.34;;;10.98;56.76
25156;BME280;21913;52.456;13.634;2023-03-01T06:57:25;101552.59;;;10.98;56.85
25156;BME280;21913;52.456;13.634;2023-03-01T07:02:26;101532.69;;;10.97;56.74
25156;BME280;21913;52.456;13.634;2023-03-01T07:07:28;101544.75;;;10.97;56.93
25156;BME280;21913;52.456;13.634;2023-03-01T07:12:30;101548.22;;;10.97;56.73
25156;BME280;21913;52.456;13.634;2023-03-01T07:17:31;101543.03;;;10.97;56.79
25156;BME280;21913;52.456;13.634;2023-03-01T07:22:33;101540.44;;;10.97;56.82
25156;BME280;21913;52.456;13.634;2023-03-01T07:27:35;101537.88;;;10.97;56.93
25156;BME280;21913;52.456;13.634;2023-03-01T07:32:37;101525.75;;;10.96;56.92
25156;BME280;21913;52.456;13.634;2023-03-01T07:37:39;101520.56;;;10.95;56.94
25156;BME280;21913;52.456;13.634;2023-03-01T07:42:40;101525.75;;;10.96;56.93
25156;BME280;21913;52.456;13.634;2023-03-01T07:47:42;101528.34;;;10.96;56.73
25156;BME280;21913;52.456;13.634;2023-03-01T07:52:47;101518.00;;;10.96;56.97
25156;BME280;21913;52.456;13.634;2023-03-01T07:57:49;101521.44;;;10.95;56.91
25156;BME280;21913;52.456;13.634;2023-03-01T08:02:51;101525.72;;;10.95;56.95
25156;BME280;21913;52.456;13.634;2023-03-01T08:07:52;101536.97;;;10.95;57.03
25156;BME280;21913;52.456;13.634;2023-03-01T08:12:54;101536.09;;;10.95;57.01
25156;BME280;21913;52.456;13.634;2023-03-01T08:17:56;101533.50;;;10.95;56.97
25156;BME280;21913;52.456;13.634;2023-03-01T08:22:58;101532.63;;;10.94;57.05
25156;BME280;21913;52.456;13.634;2023-03-01T08:27:59;101530.91;;;10.95;57.07
25156;BME280;21913;52.456;13.634;2023-03-01T08:33:01;101532.63;;;10.94;57.14
25156;BME280;21913;52.456;13.634;2023-03-01T08:38:03;101525.72;;;10.93;57.06
25156;BME280;21913;52.456;13.634;2023-03-01T08:43:04;101523.94;;;10.92;57.04
25156;BME280;21913;52.456;13.634;2023-03-01T08:48:06;101526.59;;;10.94;56.86
25156;BME280;21913;52.456;13.634;2023-03-01T08:53:07;101513.66;;;10.95;57.07
25156;BME280;21913;52.456;13.634;2023-03-01T08:58:09;101515.41;;;10.96;56.97
25156;BME280;21913;52.456;13.634;2023-03-01T09:03:11;101511.03;;;10.94;57.19
25156;BME280;21913;52.456;13.634;2023-03-01T09:08:12;101497.22;;;10.93;57.23
25156;BME280;21913;52.456;13.634;2023-03-01T09:13:14;101505.00;;;10.93;57.35
25156;BME280;21913;52.456;13.634;2023-03-01T09:18:16;101510.19;;;10.93;57.34
25156;BME280;21913;52.456;13.634;2023-03-01T09:23:17;101503.22;;;10.92;57.21
25156;BME280;21913;52.456;13.634;2023-03-01T09:28:19;101493.75;;;10.93;57.21
25156;BME280;21913;52.456;13.634;2023-03-01T09:33:31;101486.88;;;10.93;57.21
25156;BME280;21913;52.456;13.634;2023-03-01T09:38:33;101482.56;;;10.94;57.11
25156;BME280;21913;52.456;13.634;2023-03-01T09:43:47;101477.41;;;10.95;57.21
25156;BME280;21913;52.456;13.634;2023-03-01T09:49:00;101476.53;;;10.95;57.02
25156;BME280;21913;52.456;13.634;2023-03-01T09:54:04;101480.00;;;10.95;57.18
25156;BME280;21913;52.456;13.634;2023-03-01T10:09:43;101486.00;;;10.94;57.33
25156;BME280;21913;52.456;13.634;2023-03-01T10:25:43;101473.91;;;10.93;57.56
25156;BME280;21913;52.456;13.634;2023-03-01T10:30:46;101473.03;;;10.93;57.57
25156;BME280;21913;52.456;13.634;2023-03-01T10:35:48;101461.78;;;10.92;57.54
25156;BME280;21913;52.456;13.634;2023-03-01T10:41:09;101454.00;;;10.92;57.55
25156;BME280;21913;52.456;13.634;2023-03-01T10:46:35;101450.63;;;10.93;57.60
25156;BME280;21913;52.456;13.634;2023-03-01T10:51:39;101448.03;;;10.93;57.56
25156;BME280;21913;52.456;13.634;2023-03-01T10:56:46;101417.75;;;10.92;57.64
25156;BME280;21913;52.456;13.634;2023-03-01T11:02:17;101420.34;;;10.92;57.72
25156;BME280;21913;52.456;13.634;2023-03-01T11:07:25;101421.19;;;10.91;57.81
25156;BME280;21913;52.456;13.634;2023-03-01T11:12:27;101419.47;;;10.92;57.73
25156;BME280;21913;52.456;13.634;2023-03-01T11:17:31;101426.44;;;10.93;57.85
25156;BME280;21913;52.456;13.634;2023-03-01T11:22:51;101409.13;;;10.92;57.72
25156;BME280;21913;52.456;13.634;2023-03-01T11:27:54;101409.94;;;10.89;57.71
25156;BME280;21913;52.456;13.634;2023-03-01T11:33:05;101398.50;;;10.78;53.28
25156;BME280;21913;52.456;13.634;2023-03-01T11:54:02;101387.38;;;10.82;54.13
25156;BME280;21913;52.456;13.634;2023-03-01T11:59:28;101390.84;;;10.83;54.39
25156;BME280;21913;52.456;13.634;2023-03-01T12:09:49;101389.13;;;10.85;54.93
25156;BME280;21913;52.456;13.634;2023-03-01T12:20:32;101372.75;;;10.86;55.13
25156;BME280;21913;52.456;13.634;2023-03-01T12:25:55;101358.94;;;10.85;55.35
25156;BME280;21913;52.456;13.634;2023-03-01T12:41:42;101341.69;;;10.86;55.63
25156;BME280;21913;52.456;13.634;2023-03-01T12:47:07;101331.31;;;10.86;55.76
25156;BME280;21913;52.456;13.634;2023-03-01T12:52:19;101320.94;;;10.84;55.79
25156;BME280;21913;52.456;13.634;2023-03-01T12:57:38;101317.50;;;10.85;55.94
25156;BME280;21913;52.456;13.634;2023-03-01T13:03:13;101306.28;;;10.85;55.86
25156;BME280;21913;52.456;13.634;2023-03-01T13:13:29;101294.22;;;10.85;56.06
25156;BME280;21913;52.456;13.634;2023-03-01T13:18:31;101293.31;;;10.83;56.05
25156;BME280;21913;52.456;13.634;2023-03-01T13:23:38;101292.47;;;10.84;56.15
25156;BME280;21913;52.456;13.634;2023-03-01T13:28:52;101293.34;;;10.85;56.00
25156;BME280;21913;52.456;13.634;2023-03-01T13:33:58;101287.28;;;10.84;56.19
25156;BME280;21913;52.456;13.634;2023-03-01T13:39:04;101277.81;;;10.85;56.25
25156;BME280;21913;52.456;13.634;2023-03-01T13:44:13;101276.09;;;10.85;56.45
25156;BME280;21913;52.456;13.634;2023-03-01T13:49:27;101273.38;;;10.77;53.92
25156;BME280;21913;52.456;13.634;2023-03-01T13:54:38;101262.81;;;10.68;50.30
25156;BME280;21913;52.456;13.634;2023-03-01T13:59:47;101264.59;;;10.71;50.89
25156;BME280;21913;52.456;13.634;2023-03-01T14:04:59;101262.06;;;10.74;51.52
25156;BME280;21913;52.456;13.634;2023-03-01T14:10:05;101246.34;;;10.65;48.38
25156;BME280;21913;52.456;13.634;2023-03-01T14:20:26;101239.25;;;10.53;45.46
25156;BME280;21913;52.456;13.634;2023-03-01T14:25:30;101229.72;;;10.50;44.54
25156;BME280;21913;52.456;13.634;2023-03-01T14:30:36;101230.69;;;10.56;45.85
25156;BME280;21913;52.456;13.634;2023-03-01T14:35:39;101228.19;;;10.62;46.98
25156;BME280;21913;52.456;13.634;2023-03-01T14:40:42;101214.44;;;10.64;46.57
25156;BME280;21913;52.456;13.634;2023-03-01T14:45:48;101211.91;;;10.66;46.44
25156;BME280;21913;52.456;13.634;2023-03-01T14:50:50;101211.91;;;10.67;47.47
25156;BME280;21913;52.456;13.634;2023-03-01T14:55:59;101211.13;;;10.71;48.28
25156;BME280;21913;52.456;13.634;2023-03-01T15:01:04;101203.38;;;10.73;48.60
25156;BME280;21913;52.456;13.634;2023-03-01T15:06:07;101187.84;;;10.73;49.21
25156;BME280;21913;52.456;13.634;2023-03-01T15:11:21;101185.28;;;10.74;49.59
25156;BME280;21913;52.456;13.634;2023-03-01T15:16:30;101184.44;;;10.75;49.88
25156;BME280;21913;52.456;13.634;2023-03-01T15:21:35;101180.97;;;10.75;50.27
25156;BME280;21913;52.456;13.634;2023-03-01T15:26:40;101168.09;;;10.76;50.39
25156;BME280;21913;52.456;13.634;2023-03-01T15:31:43;101159.41;;;10.76;50.86
25156;BME280;21913;52.456;13.634;2023-03-01T15:36:46;101162.91;;;10.76;50.90
25156;BME280;21913;52.456;13.634;2023-03-01T15:41:48;101159.47;;;10.77;51.47
25156;BME280;21913;52.456;13.634;2023-03-01T15:46:50;101160.34;;;10.78;51.11
25156;BME280;21913;52.456;13.634;2023-03-01T15:51:54;101160.34;;;10.78;51.59
25156;BME280;21913;52.456;13.634;2023-03-01T15:56:56;101156.03;;;10.78;51.58
25156;BME280;21913;52.456;13.634;2023-03-01T16:01:57;101153.44;;;10.78;51.92
25156;BME280;21913;52.456;13.634;2023-03-01T16:06:59;101155.16;;;10.78;51.85
25156;BME280;21913;52.456;13.634;2023-03-01T16:12:01;101161.19;;;10.78;52.18
25156;BME280;21913;52.456;13.634;2023-03-01T16:17:02;101159.47;;;10.79;52.24
25156;BME280;21913;52.456;13.634;2023-03-01T16:22:05;101158.59;;;10.78;52.45
25156;BME280;21913;52.456;13.634;2023-03-01T16:27:06;101160.34;;;10.78;52.50
25156;BME280;21913;52.456;13.634;2023-03-01T16:32:08;101154.31;;;10.79;52.50
25156;BME280;21913;52.456;13.634;2023-03-01T16:37:09;101162.91;;;10.78;52.45
25156;BME280;21913;52.456;13.634;2023-03-01T16:42:11;101157.75;;;10.78;52.54
25156;BME280;21913;52.456;13.634;2023-03-01T16:47:14;101153.44;;;10.78;52.70
25156;BME280;21913;52.456;13.634;2023-03-01T16:52:15;101160.34;;;10.79;52.92
25156;BME280;21913;52.456;13.634;2023-03-01T16:57:17;101164.66;;;10.79;53.06
25156;BME280;21913;52.456;13.634;2023-03-01T17:02:19;101168.97;;;10.78;53.15
25156;BME280;21913;52.456;13.634;2023-03-01T17:07:21;101171.56;;;10.78;53.26
25156;BME280;21913;52.456;13.634;2023-03-01T17:12:23;101168.97;;;10.78;53.36
25156;BME280;21913;52.456;13.634;2023-03-01T17:17:25;101171.56;;;10.78;53.20
25156;BME280;21913;52.456;13.634;2023-03-01T17:22:26;101166.38;;;10.78;53.60
25156;BME280;21913;52.456;13.634;2023-03-01T17:27:28;101174.16;;;10.78;53.52
25156;BME280;21913;52.456;13.634;2023-03-01T17:32:29;101185.38;;;10.79;53.65
25156;BME280;21913;52.456;13.634;2023-03-01T17:37:31;101181.03;;;10.78;53.54
25156;BME280;21913;52.456;13.634;2023-03-01T17:42:33;101180.19;;;10.77;53.78
25156;BME280;21913;52.456;13.634;2023-03-01T17:47:34;101179.31;;;10.78;53.85
25156;BME280;21913;52.456;13.634;2023-03-01T17:52:36;101186.22;;;10.78;53.81
25156;BME280;21913;52.456;13.634;2023-03-01T17:57:39;101188.81;;;10.78;53.85
25156;BME280;21913;52.456;13.634;2023-03-01T18:02:41;101194.84;;;10.78;53.91
25156;BME280;21913;52.456;13.634;2023-03-01T18:07:43;101194.00;;;10.78;53.77
25156;BME280;21913;52.456;13.634;2023-03-01T18:12:45;101192.25;;;10.77;53.86
25156;BME280;21913;52.456;13.634;2023-03-01T18:17:46;101197.44;;;10.77;53.92
25156;BME280;21913;52.456;13.634;2023-03-01T18:22:48;101203.47;;;10.77;54.03
25156;BME280;21913;52.456;13.634;2023-03-01T18:27:50;101206.94;;;10.78;53.99
25156;BME280;21913;52.456;13.634;2023-03-01T18:32:51;101200.00;;;10.77;54.15
25156;BME280;21913;52.456;13.634;2023-03-01T18:37:53;101194.00;;;10.78;54.26
25156;BME280;21913;52.456;13.634;2023-03-01T18:42:54;101188.81;;;10.78;54.17
25156;BME280;21913;52.456;13.634;2023-03-01T18:47:56;101179.31;;;10.77;54.27
25156;BME280;21913;52.456;13.634;2023-03-01T18:52:58;101190.53;;;10.77;54.20
25156;BME280;21913;52.456;13.634;2023-03-01T18:57:59;101184.47;;;10.77;54.18
25156;BME280;21913;52.456;13.634;2023-03-01T19:03:01;101179.31;;;10.77;54.41
25156;BME280;21913;52.456;13.634;2023-03-01T19:08:03;101181.88;;;10.77;54.35
25156;BME280;21913;52.456;13.634;2023-03-01T19:13:04;101166.38;;;10.77;54.19
25156;BME280;21913;52.456;13.634;2023-03-01T19:18:06;101170.69;;;10.78;54.45
25156;BME280;21913;52.456;13.634;2023-03-01T19:23:08;101180.19;;;10.77;54.51
25156;BME280;21913;52.456;13.634;2023-03-01T19:28:10;101168.94;;;10.77;54.44
25156;BME280;21913;52.456;13.634;2023-03-01T19:33:12;101175.84;;;10.76;54.47
25156;BME280;21913;52.456;13.634;2023-03-01T19:38:13;101181.88;;;10.77;54.47
25156;BME280;21913;52.456;13.634;2023-03-01T19:43:15;101175.00;;;10.77;54.57
25156;BME280;21913;52.456;13.634;2023-03-01T19:48:16;101180.13;;;10.76;54.49
25156;BME280;21913;52.456;13.634;2023-03-01T19:53:19;101175.78;;;10.75;54.60
25156;BME280;21913;52.456;13.634;2023-03-01T19:58:20;101165.44;;;10.73;53.18
25156;BME280;21913;52.456;13.634;2023-03-01T20:03:22;101170.59;;;10.72;52.87
25156;BME280;21913;52.456;13.634;2023-03-01T20:08:24;101175.78;;;10.73;53.05
25156;BME280;21913;52.456;13.634;2023-03-01T20:13:26;101169.72;;;10.73;53.16
25156;BME280;21913;52.456;13.634;2023-03-01T20:18:28;101165.44;;;10.75;53.35
25156;BME280;21913;52.456;13.634;2023-03-01T20:23:29;101168.03;;;10.75;53.28
25156;BME280;21913;52.456;13.634;2023-03-01T20:28:33;101170.63;;;10.75;53.58
25156;BME280;21913;52.456;13.634;2023-03-01T20:33:35;101168.03;;;10.75;53.52
25156;BME280;21913;52.456;13.634;2023-03-01T20:38:37;101174.06;;;10.75;53.76
25156;BME280;21913;52.456;13.634;2023-03-01T20:43:40;101173.22;;;10.75;53.81
25156;BME280;21913;52.456;13.634;2023-03-01T20:48:42;101162.84;;;10.75;53.77
25156;BME280;21913;52.456;13.634;2023-03-01T20:53:44;101165.44;;;10.75;53.87
25156;BME280;21913;52.456;13.634;2023-03-01T20:58:46;101168.03;;;10.75;53.89
25156;BME280;21913;52.456;13.634;2023-03-01T21:03:48;101160.25;;;10.75;54.11
25156;BME280;21913;52.456;13.634;2023-03-01T21:08:49;101157.69;;;10.75;53.97
25156;BME280;21913;52.456;13.634;2023-03-01T21:13:52;101156.81;;;10.76;54.08
25156;BME280;21913;52.456;13.634;2023-03-01T21:18:53;101155.97;;;10.75;54.05
25156;BME280;21913;52.456;13.634;2023-03-01T21:23:55;101156.81;;;10.74;54.20
25156;BME280;21913;52.456;13.634;2023-03-01T21:28:59;101152.50;;;10.75;54.25
25156;BME280;21913;52.456;13.634;2023-03-01T21:34:03;101161.97;;;10.74;54.15
25156;BME280;21913;52.456;13.634;2023-03-01T21:39:06;101158.53;;;10.74;54.37
25156;BME280;21913;52.456;13.634;2023-03-01T21:44:07;101161.97;;;10.74;54.37
25156;BME280;21913;52.456;13.634;2023-03-01T21:49:09;101159.41;;;10.74;54.30
25156;BME280;21913;52.456;13.634;2023-03-01T21:54:12;101156.81;;;10.74;54.46
25156;BME280;21913;52.456;13.634;2023-03-01T21:59:20;101139.56;;;10.75;54.28
25156;BME280;21913;52.456;13.634;2023-03-01T22:04:22;101146.44;;;10.74;54.13
25156;BME280;21913;52.456;13.634;2023-03-01T22:09:25;101139.53;;;10.73;54.49
25156;BME280;21913;52.456;13.634;2023-03-01T22:14:28;101136.09;;;10.74;54.39
25156;BME280;21913;52.456;13.634;2023-03-01T22:19:30;101127.47;;;10.74;54.37
25156;BME280;21913;52.456;13.634;2023-03-01T22:24:32;101136.97;;;10.75;54.44
25156;BME280;21913;52.456;13.634;2023-03-01T22:29:33;101127.47;;;10.74;54.44
25156;BME280;21913;52.456;13.634;2023-03-01T22:34:35;101117.97;;;10.73;54.40
25156;BME280;21913;52.456;13.634;2023-03-01T22:39:37;101115.38;;;10.73;54.46
25156;BME280;21913;52.456;13.634;2023-03-01T22:44:38;101108.47;;;10.73;54.39
25156;BME280;21913;52.456;13.634;2023-03-01T22:49:40;101120.56;;;10.74;54.48
25156;BME280;21913;52.456;13.634;2023-03-01T22:54:42;101117.09;;;10.74;54.49
25156;BME280;21913;52.456;13.634;2023-03-01T22:59:44;101114.50;;;10.72;54.57
25156;BME280;21913;52.456;13.634;2023-03-01T23:04:45;101124.88;;;10.74;54.44
25156;BME280;21913;52.456;13.634;2023-03-01T23:09:47;101111.06;;;10.73;54.49
25156;BME280;21913;52.456;13.634;2023-03-01T23:14:51;101109.34;;;10.74;54.52
25156;BME280;21913;52.456;13.634;2023-03-01T23:19:53;101107.59;;;10.73;54.52
25156;BME280;21913;52.456;13.634;2023-03-01T23:24:54;101118.84;;;10.73;54.53
25156;BME280;21913;52.456;13.634;2023-03-01T23:29:56;101107.59;;;10.73;54.60
25156;BME280;21913;52.456;13.634;2023-03-01T23:34:58;101099.84;;;10.73;54.46
25156;BME280;21913;52.456;13.634;2023-03-01T23:39:59;101105.03;;;10.73;54.63
25156;BME280;21913;52.456;13.634;2023-03-01T23:45:01;101095.53;;;10.73;54.79
25156;BME280;21913;52.456;13.634;2023-03-01T23:50:03;101087.78;;;10.73;54.64
25156;BME280;21913;52.456;13.634;2023-03-01T23:55:06;101086.91;;;10.73;54.80
